Time;durP1;ratioP1;P1;durP2;ratioP2;P2;SDS_P1;SDS_P2;PMS_P1;PMS_P2;Temp;Humidity;BMP_temperature;BMP_pressure;BME280_temperature;BME280_humidity;BME280_pressure;Samples;Min_cycle;Max_cycle;Signal;HPM_P1;HPM_P2
2023/09/05 00:02:48;;;;;;;1.98;0.82;;;27.00;99.90;;;;;;4990365;28;20062;-51
2023/09/05 00:05:15;;;;;;;3.47;1.10;;;27.00;99.90;;;;;;4992874;28;20450;-51
2023/09/05 00:07:41;;;;;;;2.90;1.30;;;27.00;99.90;;;;;;4992872;28;20536;-50
2023/09/05 00:10:10;;;;;;;2.63;0.90;;;27.00;99.90;;;;;;4993024;28;20034;-50
2023/09/05 00:12:40;;;;;;;3.00;1.50;;;27.00;99.90;;;;;;4992980;28;20493;-49
2023/09/05 00:15:11;;;;;;;5.20;1.27;;;27.00;99.90;;;;;;4991579;28;20467;-50
2023/09/05 00:17:38;;;;;;;3.67;1.08;;;27.00;99.90;;;;;;4992986;28;20034;-50
2023/09/05 00:20:05;;;;;;;2.97;0.98;;;27.00;99.90;;;;;;4992799;28;20063;-51
2023/09/05 00:22:30;;;;;;;2.35;0.60;;;27.00;99.90;;;;;;4992641;28;20025;-50
2023/09/05 00:24:56;;;;;;;4.60;1.30;;;27.00;99.90;;;;;;4992665;28;20034;-51
2023/09/05 00:27:22;;;;;;;2.47;0.90;;;26.90;99.90;;;;;;4993187;28;20081;-52
2023/09/05 00:29:48;;;;;;;7.45;1.73;;;26.90;99.90;;;;;;4996352;28;20026;-51
2023/09/05 00:32:14;;;;;;;2.95;1.08;;;26.90;99.90;;;;;;4996340;28;20113;-51
2023/09/05 00:34:40;;;;;;;3.53;1.95;;;26.80;99.90;;;;;;4996368;28;20105;-52
2023/09/05 00:37:08;;;;;;;10.98;1.65;;;26.80;99.90;;;;;;4979130;28;20050;-50
2023/09/05 00:39:34;;;;;;;2.92;1.30;;;26.80;99.90;;;;;;4983763;28;20057;-51
2023/09/05 00:42:05;;;;;;;5.28;1.67;;;26.80;99.90;;;;;;4994016;28;20350;-51
2023/09/05 00:44:32;;;;;;;2.35;1.08;;;26.70;99.90;;;;;;4994430;28;20406;-52
2023/09/05 00:47:00;;;;;;;7.30;1.25;;;26.70;99.90;;;;;;4996079;28;20418;-51
2023/09/05 00:49:27;;;;;;;2.97;1.10;;;26.70;99.90;;;;;;4993412;28;20065;-51
2023/09/05 00:52:02;;;;;;;5.13;1.63;;;26.70;99.90;;;;;;4995882;28;20128;-51
2023/09/05 00:54:29;;;;;;;6.35;2.05;;;26.60;99.90;;;;;;4995854;28;20394;-51
2023/09/05 00:56:55;;;;;;;4.27;2.30;;;26.60;99.90;;;;;;4996035;28;20482;-52
2023/09/05 00:59:21;;;;;;;3.22;1.80;;;26.60;99.90;;;;;;4995740;28;20288;-51
2023/09/05 01:01:48;;;;;;;6.45;1.42;;;26.60;99.90;;;;;;5005180;23;20525;-62
2023/09/05 01:04:14;;;;;;;2.95;1.30;;;26.60;99.90;;;;;;4995812;28;20475;-62
2023/09/05 01:07:08;;;;;;;5.22;1.67;;;26.50;99.90;;;;;;4995947;28;20032;-62
2023/09/05 01:09:42;;;;;;;5.55;1.60;;;26.50;99.90;;;;;;4995677;28;20022;-62
2023/09/05 01:12:08;;;;;;;3.38;1.50;;;26.40;99.90;;;;;;4995906;28;20023;-60
2023/09/05 01:14:34;;;;;;;4.28;1.50;;;26.40;99.90;;;;;;4995573;28;20025;-61
2023/09/05 01:17:05;;;;;;;2.97;1.42;;;26.40;99.90;;;;;;4995360;28;20045;-59
2023/09/05 01:19:36;;;;;;;4.10;1.52;;;26.30;99.90;;;;;;4995307;28;20049;-59
2023/09/05 01:22:13;;;;;;;4.45;2.25;;;26.30;99.90;;;;;;4995421;28;20101;-62
2023/09/05 01:24:40;;;;;;;2.63;1.35;;;26.30;99.90;;;;;;4995523;28;20108;-62
2023/09/05 01:27:07;;;;;;;;;;;26.30;99.90;;;;;;4995576;28;20110;-61
2023/09/05 01:29:39;;;;;;;7.15;1.67;;;26.20;99.90;;;;;;4995253;28;19918;-61
2023/09/05 01:32:08;;;;;;;3.67;1.65;;;26.20;99.90;;;;;;4995177;28;20015;-62
2023/09/05 01:34:34;;;;;;;5.40;2.13;;;26.20;99.90;;;;;;4993897;28;20360;-61
2023/09/05 01:37:00;;;;;;;4.57;2.22;;;26.20;99.90;;;;;;4995203;28;20029;-62
2023/09/05 01:39:25;;;;;;;4.28;1.98;;;26.20;99.90;;;;;;4993816;28;20045;-62
2023/09/05 01:41:52;;;;;;;3.85;1.73;;;26.20;99.90;;;;;;4995202;28;20061;-63
2023/09/05 01:44:18;;;;;;;3.90;1.90;;;26.20;99.90;;;;;;4995108;28;20363;-60
2023/09/05 01:46:44;;;;;;;5.28;1.42;;;26.10;99.90;;;;;;4994946;28;20023;-62
2023/09/05 01:49:10;;;;;;;4.60;1.60;;;26.10;99.90;;;;;;4995260;28;20050;-62
2023/09/05 01:51:36;;;;;;;4.00;1.70;;;26.00;99.90;;;;;;4994890;28;20026;-61
2023/09/05 01:54:02;;;;;;;7.40;1.88;;;26.00;99.90;;;;;;4994883;28;20030;-61
2023/09/05 01:56:28;;;;;;;4.03;2.10;;;26.00;99.90;;;;;;4994748;28;20398;-61
2023/09/05 01:58:54;;;;;;;8.43;2.10;;;26.00;99.90;;;;;;4994727;28;20065;-61
2023/09/05 02:01:20;;;;;;;3.47;2.10;;;26.00;99.90;;;;;;4990027;23;20051;-52
2023/09/05 02:03:47;;;;;;;5.30;1.75;;;26.00;99.90;;;;;;4955918;28;20058;-51
2023/09/05 02:06:15;;;;;;;5.90;1.95;;;26.00;99.90;;;;;;4956105;28;20027;-52
2023/09/05 02:08:41;;;;;;;3.08;1.70;;;26.00;99.90;;;;;;4956242;29;20038;-52
2023/09/05 02:11:10;;;;;;;4.93;1.67;;;25.90;99.90;;;;;;4955863;28;20102;-51
2023/09/05 02:13:36;;;;;;;5.05;2.15;;;25.90;99.90;;;;;;4955774;28;20111;-50
2023/09/05 02:16:02;;;;;;;6.80;1.95;;;25.90;99.90;;;;;;4955687;28;20102;-51
2023/09/05 02:18:28;;;;;;;3.45;1.65;;;25.90;99.90;;;;;;4955583;28;20523;-51
2023/09/05 02:21:01;;;;;;;3.25;1.73;;;25.80;99.90;;;;;;4970501;28;20046;-51
2023/09/05 02:23:30;;;;;;;4.72;1.83;;;25.80;99.90;;;;;;4970446;28;20034;-51
2023/09/05 02:26:01;;;;;;;3.92;2.00;;;25.80;99.90;;;;;;4955498;29;20380;-51
2023/09/05 02:28:28;;;;;;;4.32;2.17;;;25.80;99.90;;;;;;4970173;28;20035;-51
2023/09/05 02:30:55;;;;;;;5.65;1.63;;;25.80;99.90;;;;;;4955487;28;20019;-51
2023/09/05 02:33:21;;;;;;;5.68;1.60;;;25.80;99.90;;;;;;4955342;28;20102;-51
2023/09/05 02:35:48;;;;;;;4.38;1.83;;;25.80;99.90;;;;;;4955410;28;20524;-51
2023/09/05 02:38:13;;;;;;;7.43;1.80;;;25.80;99.90;;;;;;4955481;28;20060;-51
2023/09/05 02:40:46;;;;;;;4.20;1.83;;;25.80;99.90;;;;;;4955208;28;20136;-51
2023/09/05 02:43:12;;;;;;;2.72;1.33;;;25.80;99.90;;;;;;4955274;28;20024;-51
2023/09/05 02:45:38;;;;;;;2.47;1.40;;;25.80;99.90;;;;;;4955057;28;20035;-51
2023/09/05 02:48:05;;;;;;;5.00;1.40;;;25.70;99.90;;;;;;4955026;28;20047;-49
2023/09/05 02:50:31;;;;;;;5.72;1.73;;;25.70;99.90;;;;;;4954961;28;20436;-51
2023/09/05 02:52:56;;;;;;;4.45;1.60;;;25.70;99.90;;;;;;4969941;28;20035;-51
2023/09/05 02:55:22;;;;;;;7.28;2.20;;;25.70;99.90;;;;;;4955022;28;20036;-51
2023/09/05 02:57:48;;;;;;;5.32;2.13;;;25.70;99.90;;;;;;4954928;29;20508;-53
2023/09/05 03:00:15;;;;;;;2.50;1.50;;;25.70;99.90;;;;;;4970402;28;20509;-51
2023/09/05 03:02:42;;;;;;;;;;;25.70;99.90;;;;;;4955198;29;20206;-50
2023/09/05 03:05:08;;;;;;;3.90;2.00;;;25.70;99.90;;;;;;4954847;28;20375;-50
2023/09/05 03:07:34;;;;;;;5.68;2.13;;;25.70;99.90;;;;;;4954771;28;20032;-51
2023/09/05 03:10:00;;;;;;;4.40;1.95;;;25.60;99.90;;;;;;4954724;29;20046;-50
2023/09/05 03:12:25;;;;;;;6.32;1.77;;;25.60;99.90;;;;;;4954766;28;20038;-50
2023/09/05 03:14:51;;;;;;;4.78;1.70;;;25.60;99.90;;;;;;4954634;29;20067;-50
2023/09/05 03:17:17;;;;;;;4.50;1.70;;;25.60;99.90;;;;;;4969558;28;20071;-50
2023/09/05 03:19:43;;;;;;;3.22;1.70;;;25.60;99.90;;;;;;4954657;28;20035;-50
2023/09/05 03:22:09;;;;;;;13.18;2.30;;;25.60;99.90;;;;;;4954436;29;20498;-51
2023/09/05 03:24:35;;;;;;;6.43;2.15;;;25.60;99.90;;;;;;4954531;28;20041;-51
2023/09/05 03:27:03;;;;;;;3.75;2.50;;;25.60;99.90;;;;;;4954485;28;20074;-50
2023/09/05 03:29:29;;;;;;;55.00;7.78;;;25.60;99.90;;;;;;4954528;28;20472;-51
2023/09/05 03:31:55;;;;;;;36.03;5.13;;;25.60;99.90;;;;;;4954575;28;20038;-51
2023/09/05 03:34:21;;;;;;;15.93;2.70;;;25.60;99.90;;;;;;4954307;29;20494;-51
2023/09/05 03:36:48;;;;;;;11.30;2.50;;;25.60;99.90;;;;;;4954527;28;20035;-51
2023/09/05 03:39:14;;;;;;;;;;;25.60;99.90;;;;;;4969527;28;20035;-50
2023/09/05 03:41:40;;;;;;;6.05;1.60;;;25.60;99.90;;;;;;4954313;28;19932;-51
2023/09/05 03:44:06;;;;;;;2.67;1.70;;;25.50;99.90;;;;;;4954327;28;20037;-52
2023/09/05 03:46:32;;;;;;;6.22;2.35;;;25.50;99.90;;;;;;4954257;29;20098;-50
2023/09/05 03:48:58;;;;;;;7.57;2.42;;;25.50;99.90;;;;;;4954322;29;20024;-50
2023/09/05 03:51:24;;;;;;;4.20;1.95;;;25.50;99.90;;;;;;4954207;28;20053;-49
2023/09/05 03:53:49;;;;;;;4.13;2.55;;;25.50;99.90;;;;;;4954370;28;20082;-50
2023/09/05 03:56:16;;;;;;;5.95;2.42;;;25.50;99.90;;;;;;4967683;28;20034;-51
2023/09/05 03:58:41;;;;;;;4.53;2.20;;;25.50;99.90;;;;;;4953617;28;20063;-52
2023/09/05 04:01:14;;;;;;;10.57;3.17;;;25.50;99.90;;;;;;4953841;28;20047;-50
2023/09/05 04:03:40;;;;;;;5.13;1.85;;;25.50;99.90;;;;;;4966757;28;20388;-50
2023/09/05 04:06:06;;;;;;;5.10;2.80;;;25.50;99.90;;;;;;4972697;28;20026;-50
2023/09/05 04:08:31;;;;;;;6.10;2.28;;;25.40;99.90;;;;;;4955219;28;20082;-50
2023/09/05 04:10:59;;;;;;;4.97;2.28;;;25.40;99.90;;;;;;4971461;28;20049;-50
2023/09/05 04:13:26;;;;;;;5.40;2.13;;;25.40;99.90;;;;;;4970611;28;20023;-51
2023/09/05 04:15:52;;;;;;;4.30;1.85;;;25.30;99.90;;;;;;4956527;28;20051;-50
2023/09/05 04:18:18;;;;;;;14.15;2.05;;;25.30;99.90;;;;;;4955786;29;20051;-50
2023/09/05 04:20:44;;;;;;;5.57;1.90;;;25.30;99.90;;;;;;4957657;29;20106;-48
2023/09/05 04:23:10;;;;;;;5.20;2.35;;;25.30;99.90;;;;;;4957697;28;20030;-50
2023/09/05 04:25:39;;;;;;;5.38;2.30;;;25.30;99.90;;;;;;4957539;28;20027;-50
2023/09/05 04:28:06;;;;;;;4.97;2.83;;;25.20;99.90;;;;;;4956479;29;20023;-51
2023/09/05 04:30:34;;;;;;;5.18;2.15;;;25.20;99.90;;;;;;4957616;29;20023;-50
2023/09/05 04:33:03;;;;;;;9.02;2.95;;;25.20;99.90;;;;;;4957633;28;20027;-50
2023/09/05 04:35:29;;;;;;;9.88;2.35;;;25.30;99.90;;;;;;4940765;29;20023;-50
2023/09/05 04:37:55;;;;;;;5.35;2.08;;;25.30;99.90;;;;;;4972138;28;20046;-50
2023/09/05 04:40:21;;;;;;;6.95;2.78;;;25.40;99.90;;;;;;4957605;29;20019;-50
2023/09/05 04:42:47;;;;;;;9.68;2.35;;;25.40;99.90;;;;;;4957632;29;20599;-50
2023/09/05 04:45:13;;;;;;;6.45;1.85;;;25.40;99.90;;;;;;4957281;29;20106;-49
2023/09/05 04:47:39;;;;;;;8.32;3.17;;;25.40;99.90;;;;;;4957224;28;20502;-50
2023/09/05 04:50:08;;;;;;;9.02;2.33;;;25.50;99.90;;;;;;4957353;28;20039;-50
2023/09/05 04:52:35;;;;;;;3.75;1.80;;;25.40;99.90;;;;;;4957174;28;20403;-49
2023/09/05 04:55:01;;;;;;;6.90;2.38;;;25.50;99.90;;;;;;4957086;29;20098;-49
2023/09/05 04:57:27;;;;;;;14.52;3.30;;;25.50;99.90;;;;;;4971826;28;20130;-50
2023/09/05 04:59:57;;;;;;;3.50;2.00;;;25.50;99.90;;;;;;4957271;28;20039;-51
2023/09/05 05:02:27;;;;;;;7.18;2.40;;;25.50;99.90;;;;;;4956040;28;20047;-50
2023/09/05 05:04:54;;;;;;;12.18;3.08;;;25.50;99.90;;;;;;4957277;28;20031;-50
2023/09/05 05:07:20;;;;;;;6.33;2.53;;;25.60;99.90;;;;;;4957136;28;20019;-49
2023/09/05 05:09:47;;;;;;;5.60;2.47;;;25.60;99.90;;;;;;4956776;28;20075;-50
2023/09/05 05:12:13;;;;;;;10.68;2.50;;;25.50;99.90;;;;;;4956108;28;20042;-50
2023/09/05 05:14:39;;;;;;;6.75;2.63;;;25.60;99.90;;;;;;4956625;28;20066;-50
2023/09/05 05:17:06;;;;;;;9.82;2.70;;;25.50;99.90;;;;;;4971584;28;20042;-50
2023/09/05 05:19:32;;;;;;;5.68;2.60;;;25.50;99.90;;;;;;4956831;28;20035;-50
2023/09/05 05:21:58;;;;;;;10.98;2.50;;;25.60;99.90;;;;;;4956781;28;20031;-50
2023/09/05 05:24:25;;;;;;;7.75;2.50;;;25.60;99.90;;;;;;4956862;28;20027;-50
2023/09/05 05:26:51;;;;;;;15.88;2.80;;;25.60;99.90;;;;;;4971559;28;20023;-49
2023/09/05 05:29:17;;;;;;;10.52;2.88;;;25.50;99.90;;;;;;4956459;29;20448;-51
2023/09/05 05:31:43;;;;;;;5.00;2.60;;;25.60;99.90;;;;;;4956482;29;20078;-50
2023/09/05 05:34:09;;;;;;;8.07;2.53;;;25.60;99.90;;;;;;4956442;28;20027;-51
2023/09/05 05:36:34;;;;;;;5.72;2.42;;;25.60;99.90;;;;;;4956501;29;20487;-50
2023/09/05 05:39:01;;;;;;;6.95;2.40;;;25.50;99.90;;;;;;4956413;28;20573;-50
2023/09/05 05:41:27;;;;;;;7.45;2.75;;;25.60;99.90;;;;;;4956263;28;20031;-50
2023/09/05 05:43:54;;;;;;;9.18;3.13;;;25.50;99.90;;;;;;4956386;28;20050;-50
2023/09/05 05:46:20;;;;;;;9.52;3.45;;;25.50;99.90;;;;;;4956219;28;20604;-50
2023/09/05 05:48:46;;;;;;;7.45;2.25;;;25.50;99.90;;;;;;4956149;29;20090;-51
2023/09/05 05:51:13;;;;;;;8.25;2.80;;;25.60;99.90;;;;;;4956084;28;20124;-50
2023/09/05 05:53:39;;;;;;;7.25;2.78;;;25.60;99.90;;;;;;4956078;28;20031;-50
2023/09/05 05:56:08;;;;;;;10.43;3.22;;;25.60;99.90;;;;;;4956006;28;20035;-49
2023/09/05 05:58:34;;;;;;;8.23;3.67;;;25.60;99.90;;;;;;4955955;29;20041;-50
2023/09/05 06:01:01;;;;;;;8.90;3.30;;;25.60;99.90;;;;;;4955879;29;20039;-50
2023/09/05 06:03:27;;;;;;;8.65;3.25;;;25.60;99.90;;;;;;4956112;28;20031;-50
2023/09/05 06:05:54;;;;;;;6.20;3.10;;;25.60;99.90;;;;;;4956195;28;20094;-51
2023/09/05 06:08:21;;;;;;;8.27;3.53;;;25.60;99.90;;;;;;4955895;28;20023;-50
2023/09/05 06:10:47;;;;;;;8.38;3.40;;;25.60;99.90;;;;;;4955828;28;20024;-50
2023/09/05 06:13:12;;;;;;;6.72;3.13;;;25.60;99.90;;;;;;4955814;28;20547;-51
2023/09/05 06:15:40;;;;;;;9.82;3.90;;;25.60;99.90;;;;;;4955747;28;20116;-50
2023/09/05 06:18:07;;;;;;;8.60;2.92;;;25.60;99.90;;;;;;4955584;28;20119;-50
2023/09/05 06:20:34;;;;;;;7.82;3.03;;;25.60;99.90;;;;;;4955591;28;20503;-50
2023/09/05 06:23:00;;;;;;;9.18;2.85;;;25.60;99.90;;;;;;4955760;29;20029;-50
2023/09/05 06:25:27;;;;;;;12.38;3.20;;;25.70;99.90;;;;;;4955199;28;20027;-50
2023/09/05 06:27:53;;;;;;;9.38;2.95;;;25.70;99.90;;;;;;4955288;29;20023;-50
2023/09/05 06:30:19;;;;;;;8.65;3.10;;;25.60;99.90;;;;;;4955235;28;20031;-50
2023/09/05 06:32:45;;;;;;;8.50;3.13;;;25.70;99.90;;;;;;4955188;28;20127;-50
2023/09/05 06:35:11;;;;;;;11.45;3.85;;;25.70;99.90;;;;;;4970092;28;20531;-50
2023/09/05 06:37:38;;;;;;;14.02;3.35;;;25.70;99.90;;;;;;4955274;29;20066;-51
2023/09/05 06:40:18;;;;;;;10.75;3.47;;;25.70;99.90;;;;;;4953992;29;20029;-50
2023/09/05 06:42:44;;;;;;;13.10;3.70;;;25.70;99.90;;;;;;4955117;29;20042;-51
2023/09/05 06:45:11;;;;;;;9.38;3.15;;;25.80;99.90;;;;;;4955016;28;20032;-51
2023/09/05 06:47:37;;;;;;;13.77;6.75;;;25.80;99.90;;;;;;4955247;28;20027;-50
2023/09/05 06:50:07;;;;;;;13.30;4.43;;;25.80;99.90;;;;;;4955023;28;20057;-51
2023/09/05 06:52:33;;;;;;;11.98;4.75;;;25.80;99.90;;;;;;4954908;29;20035;-51
2023/09/05 06:54:59;;;;;;;19.02;5.20;;;25.80;99.90;;;;;;4969700;28;20087;-50
2023/09/05 06:57:26;;;;;;;22.88;5.78;;;25.80;99.90;;;;;;4954755;29;20467;-51
2023/09/05 06:59:52;;;;;;;21.88;5.18;;;25.80;99.90;;;;;;4954791;28;20034;-52
2023/09/05 07:02:18;;;;;;;10.93;5.20;;;25.90;99.90;;;;;;4954568;28;20051;-51
2023/09/05 07:04:44;;;;;;;13.15;4.40;;;25.90;99.90;;;;;;4954728;29;20059;-51
2023/09/05 07:07:10;;;;;;;13.57;4.50;;;25.90;99.90;;;;;;4954818;28;20055;-51
2023/09/05 07:09:35;;;;;;;14.88;5.30;;;25.90;99.90;;;;;;4954750;28;20037;-51
2023/09/05 07:12:04;;;;;;;10.30;3.80;;;26.00;99.90;;;;;;4954598;28;20167;-51
2023/09/05 07:14:30;;;;;;;13.88;4.20;;;26.00;99.90;;;;;;4954787;29;20035;-51
2023/09/05 07:16:56;;;;;;;11.20;3.80;;;26.10;99.90;;;;;;4954827;29;20170;-52
2023/09/05 07:19:22;;;;;;;9.93;3.50;;;26.10;99.90;;;;;;4954408;29;20519;-51
2023/09/05 07:21:48;;;;;;;11.07;3.72;;;26.10;99.90;;;;;;4954467;29;20020;-51
2023/09/05 07:24:14;;;;;;;17.02;5.03;;;26.10;99.90;;;;;;4953251;28;20027;-51
2023/09/05 07:26:41;;;;;;;12.30;3.80;;;26.10;99.90;;;;;;4954133;28;20019;-51
2023/09/05 07:29:10;;;;;;;12.60;3.45;;;26.10;99.90;;;;;;4954102;29;20094;-52
2023/09/05 07:31:36;;;;;;;11.80;3.30;;;26.20;99.90;;;;;;4954036;28;20543;-51
2023/09/05 07:34:02;;;;;;;9.32;3.33;;;26.20;99.90;;;;;;4954252;29;20055;-51
2023/09/05 07:36:28;;;;;;;13.57;4.20;;;26.20;99.90;;;;;;4953897;28;20510;-52
2023/09/05 07:38:54;;;;;;;12.45;4.15;;;26.20;99.90;;;;;;4953686;28;20043;-52
2023/09/05 07:41:20;;;;;;;12.10;3.72;;;26.30;99.90;;;;;;4953317;29;20058;-51
2023/09/05 07:43:46;;;;;;;9.63;4.35;;;26.30;99.90;;;;;;4954016;29;20452;-51
2023/09/05 07:46:13;;;;;;;10.90;3.88;;;26.30;99.90;;;;;;4954226;29;20034;-51
2023/09/05 07:48:39;;;;;;;10.75;3.30;;;26.30;99.90;;;;;;4953542;29;20114;-51
2023/09/05 07:51:07;;;;;;;8.95;4.55;;;26.40;99.90;;;;;;4953825;28;20073;-51
2023/09/05 07:53:34;;;;;;;12.18;3.20;;;26.40;99.90;;;;;;4954302;28;20055;-51
2023/09/05 07:56:01;;;;;;;11.27;3.75;;;26.50;99.90;;;;;;4954176;29;20028;-52
2023/09/05 07:58:27;;;;;;;9.23;3.92;;;26.50;99.90;;;;;;4953918;28;20023;-51
2023/09/05 08:00:54;;;;;;;13.15;3.83;;;26.50;99.90;;;;;;4953872;29;20082;-51
2023/09/05 08:03:20;;;;;;;7.40;2.83;;;26.60;99.90;;;;;;4954088;29;20384;-51
2023/09/05 08:05:48;;;;;;;11.45;7.05;;;26.60;99.90;;;;;;4953996;29;20031;-51
2023/09/05 08:08:14;;;;;;;8.82;3.60;;;26.60;99.90;;;;;;4954132;28;20038;-54
2023/09/05 08:10:41;;;;;;;9.35;3.55;;;26.60;99.90;;;;;;4954065;29;20094;-51
2023/09/05 08:13:09;;;;;;;11.90;3.05;;;26.70;99.90;;;;;;4953932;28;20472;-52
2023/09/05 08:15:36;;;;;;;7.57;2.45;;;26.70;99.90;;;;;;4953957;29;20031;-52
2023/09/05 08:18:03;;;;;;;6.65;2.58;;;26.70;99.90;;;;;;4968825;28;20110;-54
2023/09/05 08:20:29;;;;;;;9.50;2.47;;;26.70;99.90;;;;;;4954432;29;20039;-52
2023/09/05 08:22:55;;;;;;;10.57;2.42;;;26.80;99.90;;;;;;4953986;28;20027;-52
2023/09/05 08:25:24;;;;;;;7.07;2.60;;;26.80;99.90;;;;;;4953771;28;20449;-53
2023/09/05 08:27:56;;;;;;;7.38;3.58;;;26.80;99.90;;;;;;4953899;29;20032;-52
2023/09/05 08:30:24;;;;;;;6.63;3.47;;;26.80;99.90;;;;;;4953856;28;20051;-52
2023/09/05 08:32:54;;;;;;;5.97;2.33;;;26.90;99.90;;;;;;4953891;29;20095;-52
2023/09/05 08:35:20;;;;;;;7.50;2.45;;;26.90;99.90;;;;;;4953868;28;20054;-52
2023/09/05 08:37:46;;;;;;;6.57;2.45;;;26.90;99.90;;;;;;4953708;28;20365;-50
2023/09/05 08:40:13;;;;;;;8.45;3.45;;;27.00;99.90;;;;;;4953651;28;20031;-51
2023/09/05 08:42:39;;;;;;;10.45;4.13;;;27.00;99.90;;;;;;4953665;28;20016;-51
2023/09/05 08:45:11;;;;;;;6.45;3.45;;;27.00;99.90;;;;;;4953936;28;20509;-52
2023/09/05 08:47:38;;;;;;;8.88;3.92;;;27.10;99.90;;;;;;4953912;28;20089;-52
2023/09/05 08:50:05;;;;;;;8.52;4.05;;;27.10;99.90;;;;;;4955865;29;20023;-51
2023/09/05 08:52:34;;;;;;;8.82;6.18;;;27.10;99.90;;;;;;4957316;29;20031;-53
2023/09/05 08:55:02;;;;;;;7.22;3.30;;;27.20;99.90;;;;;;4957091;28;20114;-52
2023/09/05 08:57:29;;;;;;;4.50;2.30;;;27.20;99.90;;;;;;4957155;28;20031;-51
2023/09/05 08:59:55;;;;;;;;;;;27.20;99.90;;;;;;4957507;28;20035;-52
2023/09/05 09:02:21;;;;;;;5.63;3.10;;;27.20;99.90;;;;;;4957050;28;19925;-51
2023/09/05 09:04:56;;;;;;;5.82;2.72;;;27.30;99.90;;;;;;4957088;28;20503;-51
2023/09/05 09:07:29;;;;;;;7.15;2.92;;;27.30;99.90;;;;;;4957024;28;20027;-51
2023/09/05 09:09:56;;;;;;;6.97;3.45;;;27.30;99.90;;;;;;4956969;28;20027;-51
2023/09/05 09:12:31;;;;;;;7.60;3.05;;;27.30;99.90;;;;;;4955790;29;20485;-52
2023/09/05 09:15:10;;;;;;;3.67;2.30;;;27.30;99.90;;;;;;4956930;28;20350;-50
2023/09/05 09:17:36;;;;;;;5.68;2.80;;;27.40;99.90;;;;;;4956903;28;20142;-51
2023/09/05 09:20:05;;;;;;;8.45;2.53;;;27.40;99.90;;;;;;4956716;28;20109;-51
2023/09/05 09:22:31;;;;;;;6.68;2.72;;;27.40;99.90;;;;;;4956520;29;20023;-51
2023/09/05 09:24:57;;;;;;;4.80;2.53;;;27.40;99.90;;;;;;4956647;28;20364;-51
2023/09/05 09:27:23;;;;;;;14.13;2.55;;;27.40;99.90;;;;;;4956412;28;20424;-51
2023/09/05 09:29:57;;;;;;;13.02;2.67;;;27.50;99.90;;;;;;4956452;29;20472;-52
2023/09/05 09:32:24;;;;;;;5.82;2.28;;;27.50;99.90;;;;;;4956458;28;20388;-52
2023/09/05 09:34:50;;;;;;;7.47;2.67;;;27.50;99.90;;;;;;4956479;29;20050;-52
2023/09/05 09:37:26;;;;;;;5.63;2.40;;;27.60;99.90;;;;;;4971053;28;20034;-52
2023/09/05 09:40:05;;;;;;;5.07;2.50;;;27.60;99.90;;;;;;4956059;28;20082;-52
2023/09/05 09:42:31;;;;;;;5.78;2.33;;;27.60;99.90;;;;;;4970924;28;20028;-52
2023/09/05 09:44:57;;;;;;;5.13;2.55;;;27.60;99.90;;;;;;4956107;28;20035;-51
2023/09/05 09:47:24;;;;;;;5.00;2.15;;;27.60;99.90;;;;;;4956222;28;20023;-52
2023/09/05 09:49:51;;;;;;;9.32;2.22;;;27.70;99.90;;;;;;4954831;29;20106;-52
2023/09/05 09:52:22;;;;;;;8.00;2.97;;;27.70;99.90;;;;;;4955968;29;20126;-52
2023/09/05 09:54:53;;;;;;;6.35;2.50;;;27.70;99.90;;;;;;4956052;28;20023;-52
2023/09/05 09:57:38;;;;;;;6.43;2.50;;;27.80;99.90;;;;;;4970945;28;20028;-51
2023/09/05 10:00:15;;;;;;;7.10;3.17;;;27.80;99.90;;;;;;4955235;28;20035;-52
2023/09/05 10:02:47;;;;;;;7.55;2.80;;;27.80;99.90;;;;;;4955825;28;20039;-52
2023/09/05 10:05:16;;;;;;;6.30;2.45;;;27.90;99.90;;;;;;4955740;28;20031;-51
2023/09/05 10:07:46;;;;;;;5.32;2.00;;;28.00;99.90;;;;;;4970602;28;20083;-52
2023/09/05 10:10:15;;;;;;;6.35;2.47;;;28.10;99.90;;;;;;4955749;29;20035;-52
2023/09/05 10:12:46;;;;;;;7.72;2.67;;;28.10;99.90;;;;;;4970345;28;20397;-52
2023/09/05 10:15:18;;;;;;;6.30;2.67;;;28.10;99.90;;;;;;4955785;28;20023;-52
2023/09/05 10:17:45;;;;;;;4.75;2.33;;;28.10;99.90;;;;;;4955522;28;20070;-53
2023/09/05 10:20:14;;;;;;;5.45;2.05;;;28.10;99.90;;;;;;4955601;29;20122;-52
2023/09/05 10:22:44;;;;;;;3.40;2.20;;;28.10;99.90;;;;;;4955613;28;20059;-52
2023/09/05 10:25:12;;;;;;;4.25;2.35;;;28.10;99.90;;;;;;4955658;28;20027;-52
2023/09/05 10:27:37;;;;;;;4.40;2.00;;;28.20;99.90;;;;;;4955673;29;20090;-53
2023/09/05 10:30:04;;;;;;;5.07;1.98;;;28.20;99.90;;;;;;4955509;28;20376;-52
2023/09/05 10:32:31;;;;;;;4.95;2.63;;;28.20;99.90;;;;;;4955220;29;20038;-52
2023/09/05 10:35:02;;;;;;;6.70;2.20;;;28.20;99.90;;;;;;4955092;29;20078;-51
2023/09/05 10:37:34;;;;;;;2.92;2.15;;;28.30;99.90;;;;;;4955152;28;20547;-49
2023/09/05 10:40:07;;;;;;;8.60;2.83;;;28.30;99.90;;;;;;4955097;28;20129;-53
2023/09/05 10:42:36;;;;;;;6.78;2.45;;;28.30;99.90;;;;;;4955092;28;20051;-52
2023/09/05 10:45:38;;;;;;;3.97;2.08;;;28.40;99.90;;;;;;4969943;28;20031;-52
2023/09/05 10:48:11;;;;;;;4.35;2.20;;;28.40;99.90;;;;;;4954593;28;20046;-52
2023/09/05 10:51:07;;;;;;;5.65;2.50;;;28.40;99.90;;;;;;4955194;28;20026;-51
2023/09/05 10:53:35;;;;;;;4.50;2.08;;;28.50;99.90;;;;;;4954800;28;20552;-51
2023/09/05 10:56:01;;;;;;;8.60;2.45;;;28.50;99.90;;;;;;4954965;29;20546;-53
2023/09/05 10:58:53;;;;;;;2.92;1.90;;;28.60;99.90;;;;;;4954612;28;20043;-51
2023/09/05 11:01:31;;;;;;;3.78;2.03;;;28.60;99.90;;;;;;4954520;29;20492;-51
2023/09/05 11:04:07;;;;;;;3.88;1.92;;;28.70;99.90;;;;;;4969464;28;20082;-50
2023/09/05 11:06:42;;;;;;;4.30;2.15;;;28.80;99.90;;;;;;4954650;29;20376;-52
2023/09/05 11:09:08;;;;;;;5.57;2.70;;;28.90;99.90;;;;;;4954943;28;20103;-52
2023/09/05 11:11:37;;;;;;;7.75;3.13;;;28.90;99.90;;;;;;4954421;28;20456;-51
2023/09/05 11:14:06;;;;;;;6.55;2.95;;;29.00;99.90;;;;;;4954617;29;20035;-51
2023/09/05 11:16:47;;;;;;;5.18;3.05;;;29.00;99.90;;;;;;4954514;29;20028;-51
2023/09/05 11:19:42;;;;;;;6.03;2.30;;;29.00;99.90;;;;;;4969576;28;20097;-50
2023/09/05 11:22:11;;;;;;;8.18;2.63;;;29.10;99.90;;;;;;4945421;28;20114;-52
2023/09/05 11:24:46;;;;;;;7.80;3.28;;;29.10;99.90;;;;;;4954521;28;20225;-52
2023/09/05 11:27:13;;;;;;;6.43;3.38;;;29.10;99.90;;;;;;4954534;29;20030;-52
2023/09/05 11:29:42;;;;;;;3.88;2.88;;;29.10;99.90;;;;;;4954433;28;20066;-50
2023/09/05 11:32:08;;;;;;;4.70;2.28;;;29.10;99.90;;;;;;4954196;28;20031;-52
2023/09/05 11:34:34;;;;;;;13.10;2.80;;;29.20;99.90;;;;;;4954337;28;20027;-51
2023/09/05 11:37:02;;;;;;;9.85;3.70;;;29.20;99.90;;;;;;4954215;28;20053;-52
2023/09/05 11:39:28;;;;;;;8.15;4.18;;;29.30;99.90;;;;;;4953945;29;20043;-49
2023/09/05 11:41:58;;;;;;;7.60;2.22;;;29.20;99.90;;;;;;4953769;28;20418;-50
2023/09/05 11:44:52;;;;;;;7.38;2.30;;;29.30;99.90;;;;;;4953629;28;20020;-51
2023/09/05 11:47:19;;;;;;;6.25;2.00;;;29.30;99.90;;;;;;4951556;29;20035;-49
2023/09/05 11:49:48;;;;;;;4.22;2.75;;;29.30;99.90;;;;;;4953727;28;20026;-47
2023/09/05 11:52:15;;;;;;;6.15;2.42;;;29.30;99.90;;;;;;4953640;28;20023;-49
2023/09/05 11:54:42;;;;;;;7.95;4.10;;;29.30;99.90;;;;;;4953718;28;20054;-49
2023/09/05 11:57:08;;;;;;;7.05;2.35;;;29.40;99.90;;;;;;4950699;29;20119;-48
2023/09/05 11:59:34;;;;;;;5.80;1.87;;;29.40;99.90;;;;;;4953418;28;20032;-49
2023/09/05 12:02:08;;;;;;;3.28;1.88;;;29.30;99.90;;;;;;4953426;28;20042;-49
2023/09/05 12:04:35;;;;;;;9.02;3.95;;;29.30;99.90;;;;;;4952022;29;20109;-52
2023/09/05 12:07:05;;;;;;;6.97;4.18;;;29.30;99.90;;;;;;4953514;29;20033;-51
2023/09/05 12:09:31;;;;;;;5.75;4.45;;;29.30;99.90;;;;;;4953452;28;20031;-51
2023/09/05 12:12:11;;;;;;;3.33;1.38;;;29.30;99.90;;;;;;4952163;29;20110;-51
2023/09/05 12:14:56;;;;;;;2.47;1.42;;;29.30;99.90;;;;;;4952866;28;20051;-51
2023/09/05 12:17:24;;;;;;;6.00;1.85;;;29.30;99.90;;;;;;4950750;29;20395;-50
2023/09/05 12:19:51;;;;;;;3.30;1.75;;;29.30;99.90;;;;;;4951877;28;20069;-50
2023/09/05 12:22:31;;;;;;;3.83;2.83;;;29.30;99.90;;;;;;4953343;29;20046;-48
2023/09/05 12:25:06;;;;;;;4.38;2.55;;;29.20;99.90;;;;;;4956679;28;20135;-48
2023/09/05 12:27:31;;;;;;;2.47;1.60;;;29.20;99.90;;;;;;4957303;28;20081;-47
2023/09/05 12:29:57;;;;;;;5.10;1.83;;;29.10;99.90;;;;;;4957598;28;20035;-48
2023/09/05 12:32:26;;;;;;;1.52;1.02;;;29.10;99.90;;;;;;4956721;28;20436;-48
2023/09/05 12:34:55;;;;;;;1.05;0.73;;;29.10;99.90;;;;;;4957042;28;20019;-48
2023/09/05 12:37:21;;;;;;;1.13;0.80;;;29.10;99.90;;;;;;4956548;28;20030;-49
2023/09/05 12:39:50;;;;;;;2.50;0.90;;;29.10;99.90;;;;;;4956906;29;20058;-49
2023/09/05 12:42:16;;;;;;;2.15;0.90;;;29.20;99.90;;;;;;4954331;29;20266;-50
2023/09/05 12:44:42;;;;;;;1.05;0.70;;;29.20;99.90;;;;;;4956927;29;20090;-49
2023/09/05 12:47:08;;;;;;;1.38;0.63;;;29.30;99.90;;;;;;4955791;28;20035;-52
2023/09/05 12:49:37;;;;;;;2.70;0.80;;;29.30;99.90;;;;;;4957326;28;20031;-49
2023/09/05 12:52:03;;;;;;;0.98;0.65;;;29.30;99.90;;;;;;4956357;28;20020;-49